sensor_id;sensor_type;location;lat;lon;timestamp;P1;P2;P0
35654;PMS1003;21773;50.010;19.972;2023-08-30T00:00:23;17.00;14.60;12.40
35654;PMS1003;21773;50.010;19.972;2023-08-30T00:03:27;16.00;14.00;12.00
35654;PMS1003;21773;50.010;19.972;2023-08-30T00:06:30;15.75;14.00;12.00
35654;PMS1003;21773;50.010;19.972;2023-08-30T00:09:34;15.00;13.00;11.00
35654;PMS1003;21773;50.010;19.972;2023-08-30T00:12:38;14.00;12.00;10.00
35654;PMS1003;21773;50.010;19.972;2023-08-30T00:15:42;13.00;12.00;11.00
35654;PMS1003;21773;50.010;19.972;2023-08-30T00:18:45;13.60;13.00;10.60
35654;PMS1003;21773;50.010;19.972;2023-08-30T00:21:49;11.40;11.00;9.00
35654;PMS1003;21773;50.010;19.972;2023-08-30T00:24:52;11.00;11.00;8.40
35654;PMS1003;21773;50.010;19.972;2023-08-30T00:27:55;11.00;10.00;8.25
35654;PMS1003;21773;50.010;19.972;2023-08-30T00:31:00;10.00;9.00;7.25
35654;PMS1003;21773;50.010;19.972;2023-08-30T00:34:03;11.00;10.00;9.00
35654;PMS1003;21773;50.010;19.972;2023-08-30T00:37:06;10.00;9.00;8.00
35654;PMS1003;21773;50.010;19.972;2023-08-30T00:40:10;7.00;7.00;6.00
35654;PMS1003;21773;50.010;19.972;2023-08-30T00:43:14;12.60;10.00;9.00
35654;PMS1003;21773;50.010;19.972;2023-08-30T00:46:18;8.60;8.00;7.00
35654;PMS1003;21773;50.010;19.972;2023-08-30T00:49:22;10.50;9.50;9.00
35654;PMS1003;21773;50.010;19.972;2023-08-30T00:52:25;11.00;9.60;9.00
35654;PMS1003;21773;50.010;19.972;2023-08-30T00:55:29;10.40;9.00;8.40
35654;PMS1003;21773;50.010;19.972;2023-08-30T00:58:33;10.00;9.40;8.00
35654;PMS1003;21773;50.010;19.972;2023-08-30T01:01:38;8.00;7.80;7.00
35654;PMS1003;21773;50.010;19.972;2023-08-30T01:04:43;8.00;7.00;6.40
35654;PMS1003;21773;50.010;19.972;2023-08-30T01:07:47;9.00;9.00;9.00
35654;PMS1003;21773;50.010;19.972;2023-08-30T01:10:52;7.40;7.00;6.00
35654;PMS1003;21773;50.010;19.972;2023-08-30T01:14:03;7.25;7.00;6.00
35654;PMS1003;21773;50.010;19.972;2023-08-30T01:17:11;5.60;5.60;5.00
35654;PMS1003;21773;50.010;19.972;2023-08-30T01:20:19;8.00;6.00;5.00
35654;PMS1003;21773;50.010;19.972;2023-08-30T01:23:29;8.00;7.00;6.00
35654;PMS1003;21773;50.010;19.972;2023-08-30T01:26:44;7.00;6.00;5.00
35654;PMS1003;21773;50.010;19.972;2023-08-30T01:29:58;9.00;8.40;7.40
35654;PMS1003;21773;50.010;19.972;2023-08-30T01:33:03;8.75;7.00;6.00
35654;PMS1003;21773;50.010;19.972;2023-08-30T01:36:07;5.00;5.00;4.00
35654;PMS1003;21773;50.010;19.972;2023-08-30T01:39:11;9.80;7.00;6.00
35654;PMS1003;21773;50.010;19.972;2023-08-30T01:42:17;7.00;6.00;5.00
35654;PMS1003;21773;50.010;19.972;2023-08-30T01:45:25;8.40;8.40;7.00
35654;PMS1003;21773;50.010;19.972;2023-08-30T01:48:30;7.00;7.00;6.00
35654;PMS1003;21773;50.010;19.972;2023-08-30T01:51:36;7.00;7.00;6.00
35654;PMS1003;21773;50.010;19.972;2023-08-30T01:54:40;9.00;8.40;7.40
35654;PMS1003;21773;50.010;19.972;2023-08-30T01:57:44;7.75;7.00;6.75
35654;PMS1003;21773;50.010;19.972;2023-08-30T02:00:48;7.00;7.00;6.00
35654;PMS1003;21773;50.010;19.972;2023-08-30T02:03:52;8.50;8.00;7.00
35654;PMS1003;21773;50.010;19.972;2023-08-30T02:06:57;8.00;7.00;6.00
35654;PMS1003;21773;50.010;19.972;2023-08-30T02:10:07;8.60;7.00;6.00
35654;PMS1003;21773;50.010;19.972;2023-08-30T02:13:12;7.60;6.00;4.80
35654;PMS1003;21773;50.010;19.972;2023-08-30T02:16:19;6.75;6.00;5.75
35654;PMS1003;21773;50.010;19.972;2023-08-30T02:19:25;8.00;7.00;6.00
35654;PMS1003;21773;50.010;19.972;2023-08-30T02:22:30;7.00;6.00;5.00
35654;PMS1003;21773;50.010;19.972;2023-08-30T02:25:33;9.75;8.00;7.00
35654;PMS1003;21773;50.010;19.972;2023-08-30T02:28:37;6.00;5.75;4.75
35654;PMS1003;21773;50.010;19.972;2023-08-30T02:31:42;6.00;5.40;4.40
35654;PMS1003;21773;50.010;19.972;2023-08-30T02:34:45;5.80;5.00;4.00
35654;PMS1003;21773;50.010;19.972;2023-08-30T02:37:48;6.40;6.00;5.00
35654;PMS1003;21773;50.010;19.972;2023-08-30T02:40:52;7.00;6.00;5.25
35654;PMS1003;21773;50.010;19.972;2023-08-30T02:43:55;6.00;6.00;5.00
35654;PMS1003;21773;50.010;19.972;2023-08-30T02:46:59;6.00;5.40;5.00
35654;PMS1003;21773;50.010;19.972;2023-08-30T02:50:03;6.50;6.00;5.50
35654;PMS1003;21773;50.010;19.972;2023-08-30T02:53:08;6.40;6.00;5.00
35654;PMS1003;21773;50.010;19.972;2023-08-30T02:56:11;8.00;6.00;5.50
35654;PMS1003;21773;50.010;19.972;2023-08-30T02:59:14;5.00;4.60;4.00
35654;PMS1003;21773;50.010;19.972;2023-08-30T03:02:20;5.00;5.00;5.00
35654;PMS1003;21773;50.010;19.972;2023-08-30T03:05:24;6.60;6.00;5.00
35654;PMS1003;21773;50.010;19.972;2023-08-30T03:08:27;8.00;7.40;7.00
35654;PMS1003;21773;50.010;19.972;2023-08-30T03:11:30;6.00;6.00;5.00
35654;PMS1003;21773;50.010;19.972;2023-08-30T03:14:34;6.40;6.00;6.00
35654;PMS1003;21773;50.010;19.972;2023-08-30T03:17:38;9.00;7.20;6.80
35654;PMS1003;21773;50.010;19.972;2023-08-30T03:20:42;8.60;8.00;7.60
35654;PMS1003;21773;50.010;19.972;2023-08-30T03:23:45;9.00;7.00;7.00
35654;PMS1003;21773;50.010;19.972;2023-08-30T03:26:49;10.00;9.00;7.00
35654;PMS1003;21773;50.010;19.972;2023-08-30T03:29:54;10.00;9.00;7.80
35654;PMS1003;21773;50.010;19.972;2023-08-30T03:32:59;7.40;6.40;5.40
35654;PMS1003;21773;50.010;19.972;2023-08-30T03:36:03;9.00;7.40;7.40
35654;PMS1003;21773;50.010;19.972;2023-08-30T03:39:06;8.00;7.20;6.00
35654;PMS1003;21773;50.010;19.972;2023-08-30T03:42:10;8.25;8.00;7.00
35654;PMS1003;21773;50.010;19.972;2023-08-30T03:45:13;10.40;8.40;8.00
35654;PMS1003;21773;50.010;19.972;2023-08-30T03:48:18;8.00;8.00;7.00
35654;PMS1003;21773;50.010;19.972;2023-08-30T03:51:21;9.00;9.00;8.00
35654;PMS1003;21773;50.010;19.972;2023-08-30T03:54:25;7.00;7.00;7.00
35654;PMS1003;21773;50.010;19.972;2023-08-30T03:57:28;9.00;9.00;7.60
35654;PMS1003;21773;50.010;19.972;2023-08-30T04:00:31;8.67;8.00;7.00
35654;PMS1003;21773;50.010;19.972;2023-08-30T04:03:38;10.80;9.80;8.00
35654;PMS1003;21773;50.010;19.972;2023-08-30T04:06:42;7.00;6.00;5.00
35654;PMS1003;21773;50.010;19.972;2023-08-30T04:09:45;6.75;6.00;5.75
35654;PMS1003;21773;50.010;19.972;2023-08-30T04:12:48;9.00;9.00;8.00
35654;PMS1003;21773;50.010;19.972;2023-08-30T04:15:51;10.00;9.00;8.00
35654;PMS1003;21773;50.010;19.972;2023-08-30T04:18:56;9.00;8.50;7.00
35654;PMS1003;21773;50.010;19.972;2023-08-30T04:22:00;8.00;7.00;6.40
35654;PMS1003;21773;50.010;19.972;2023-08-30T04:25:04;9.00;8.00;7.00
35654;PMS1003;21773;50.010;19.972;2023-08-30T04:28:10;9.50;8.00;7.00
35654;PMS1003;21773;50.010;19.972;2023-08-30T04:31:14;9.40;7.00;7.00
35654;PMS1003;21773;50.010;19.972;2023-08-30T04:34:18;8.00;7.00;6.00
35654;PMS1003;21773;50.010;19.972;2023-08-30T04:37:22;9.00;8.00;7.80
35654;PMS1003;21773;50.010;19.972;2023-08-30T04:40:26;12.00;11.00;8.60
35654;PMS1003;21773;50.010;19.972;2023-08-30T04:43:30;11.00;9.00;6.60
35654;PMS1003;21773;50.010;19.972;2023-08-30T04:46:33;11.80;11.00;10.00
35654;PMS1003;21773;50.010;19.972;2023-08-30T04:49:38;12.80;10.40;9.00
35654;PMS1003;21773;50.010;19.972;2023-08-30T04:52:41;11.75;10.75;9.75
35654;PMS1003;21773;50.010;19.972;2023-08-30T04:55:45;11.00;10.00;9.00
35654;PMS1003;21773;50.010;19.972;2023-08-30T04:58:49;12.00;10.00;9.00
35654;PMS1003;21773;50.010;19.972;2023-08-30T05:01:53;12.00;11.00;9.75
35654;PMS1003;21773;50.010;19.972;2023-08-30T05:05:00;13.40;12.60;11.00
35654;PMS1003;21773;50.010;19.972;2023-08-30T05:08:04;15.00;12.00;9.40
35654;PMS1003;21773;50.010;19.972;2023-08-30T05:11:08;13.00;10.75;8.00
35654;PMS1003;21773;50.010;19.972;2023-08-30T05:14:12;12.00;11.00;9.60
35654;PMS1003;21773;50.010;19.972;2023-08-30T05:17:15;14.00;12.00;11.00
35654;PMS1003;21773;50.010;19.972;2023-08-30T05:20:20;12.60;11.40;9.00
35654;PMS1003;21773;50.010;19.972;2023-08-30T05:23:23;13.60;12.00;9.60
35654;PMS1003;21773;50.010;19.972;2023-08-30T05:26:26;9.00;9.00;8.00
35654;PMS1003;21773;50.010;19.972;2023-08-30T05:29:30;9.50;9.00;7.00
35654;PMS1003;21773;50.010;19.972;2023-08-30T05:32:33;13.80;11.00;9.00
35654;PMS1003;21773;50.010;19.972;2023-08-30T05:35:58;13.25;12.00;9.00
35654;PMS1003;21773;50.010;19.972;2023-08-30T05:39:24;13.00;12.00;11.20
35654;PMS1003;21773;50.010;19.972;2023-08-30T05:42:30;14.40;12.00;10.00
35654;PMS1003;21773;50.010;19.972;2023-08-30T05:45:34;16.00;14.00;11.00
35654;PMS1003;21773;50.010;19.972;2023-08-30T05:48:37;10.00;10.00;8.00
35654;PMS1003;21773;50.010;19.972;2023-08-30T05:51:41;16.00;13.00;10.60
35654;PMS1003;21773;50.010;19.972;2023-08-30T05:54:45;17.40;14.40;11.00
35654;PMS1003;21773;50.010;19.972;2023-08-30T05:57:49;13.00;12.40;10.40
35654;PMS1003;21773;50.010;19.972;2023-08-30T06:00:52;13.00;12.00;10.00
35654;PMS1003;21773;50.010;19.972;2023-08-30T06:03:55;15.00;10.40;9.00
35654;PMS1003;21773;50.010;19.972;2023-08-30T06:07:00;13.00;12.00;9.25
35654;PMS1003;21773;50.010;19.972;2023-08-30T06:10:05;16.00;14.00;12.00
35654;PMS1003;21773;50.010;19.972;2023-08-30T06:13:10;13.00;10.00;8.00
35654;PMS1003;21773;50.010;19.972;2023-08-30T06:16:13;13.00;13.00;11.00
35654;PMS1003;21773;50.010;19.972;2023-08-30T06:19:16;14.00;12.40;10.00
35654;PMS1003;21773;50.010;19.972;2023-08-30T06:22:20;13.00;12.00;10.00
35654;PMS1003;21773;50.010;19.972;2023-08-30T06:25:24;13.60;12.00;9.00
35654;PMS1003;21773;50.010;19.972;2023-08-30T06:28:27;14.00;12.00;11.00
35654;PMS1003;21773;50.010;19.972;2023-08-30T06:31:30;14.00;11.50;10.00
35654;PMS1003;21773;50.010;19.972;2023-08-30T06:34:34;11.50;11.00;9.25
35654;PMS1003;21773;50.010;19.972;2023-08-30T06:37:39;12.50;11.00;10.00
35654;PMS1003;21773;50.010;19.972;2023-08-30T06:40:43;13.80;12.20;10.20
35654;PMS1003;21773;50.010;19.972;2023-08-30T06:43:47;16.40;14.00;11.00
35654;PMS1003;21773;50.010;19.972;2023-08-30T06:46:51;13.40;12.40;10.40
35654;PMS1003;21773;50.010;19.972;2023-08-30T06:49:54;18.40;14.40;11.40
35654;PMS1003;21773;50.010;19.972;2023-08-30T06:52:58;17.00;15.00;12.00
35654;PMS1003;21773;50.010;19.972;2023-08-30T06:56:02;15.75;13.50;11.25
35654;PMS1003;21773;50.010;19.972;2023-08-30T06:59:05;15.00;12.00;10.00
35654;PMS1003;21773;50.010;19.972;2023-08-30T07:02:08;15.40;13.00;11.00
35654;PMS1003;21773;50.010;19.972;2023-08-30T07:05:12;11.00;11.00;10.00
35654;PMS1003;21773;50.010;19.972;2023-08-30T07:08:16;16.40;13.40;10.40
35654;PMS1003;21773;50.010;19.972;2023-08-30T07:11:20;16.75;14.75;12.25
35654;PMS1003;21773;50.010;19.972;2023-08-30T07:14:34;19.40;15.00;12.00
35654;PMS1003;21773;50.010;19.972;2023-08-30T07:17:37;17.00;14.00;12.00
35654;PMS1003;21773;50.010;19.972;2023-08-30T07:20:53;13.20;12.20;10.00
35654;PMS1003;21773;50.010;19.972;2023-08-30T07:23:58;13.00;12.00;9.00
35654;PMS1003;21773;50.010;19.972;2023-08-30T07:27:01;12.40;10.00;8.00
35654;PMS1003;21773;50.010;19.972;2023-08-30T07:30:05;12.40;11.20;9.20
35654;PMS1003;21773;50.010;19.972;2023-08-30T07:33:09;12.60;11.00;9.60
35654;PMS1003;21773;50.010;19.972;2023-08-30T07:36:12;13.75;12.75;11.00
35654;PMS1003;21773;50.010;19.972;2023-08-30T07:39:17;17.00;13.00;10.00
35654;PMS1003;21773;50.010;19.972;2023-08-30T07:42:20;16.00;13.20;10.20
35654;PMS1003;21773;50.010;19.972;2023-08-30T07:45:23;15.00;11.33;9.00
35654;PMS1003;21773;50.010;19.972;2023-08-30T07:48:26;15.60;14.00;11.00
35654;PMS1003;21773;50.010;19.972;2023-08-30T07:51:30;15.00;13.00;10.00
35654;PMS1003;21773;50.010;19.972;2023-08-30T07:54:34;12.40;11.40;10.00
35654;PMS1003;21773;50.010;19.972;2023-08-30T07:57:37;11.60;10.60;7.60
35654;PMS1003;21773;50.010;19.972;2023-08-30T08:00:40;8.60;7.00;6.00
35654;PMS1003;21773;50.010;19.972;2023-08-30T08:03:44;9.60;8.40;6.40
35654;PMS1003;21773;50.010;19.972;2023-08-30T08:07:07;7.00;7.00;6.00
35654;PMS1003;21773;50.010;19.972;2023-08-30T08:10:11;8.00;6.40;6.00
35654;PMS1003;21773;50.010;19.972;2023-08-30T08:13:14;9.33;8.00;7.00
35654;PMS1003;21773;50.010;19.972;2023-08-30T08:16:18;10.00;8.00;7.00
35654;PMS1003;21773;50.010;19.972;2023-08-30T08:19:21;8.25;6.75;4.75
35654;PMS1003;21773;50.010;19.972;2023-08-30T08:22:27;8.00;7.00;5.60
35654;PMS1003;21773;50.010;19.972;2023-08-30T08:25:31;9.80;7.80;6.00
35654;PMS1003;21773;50.010;19.972;2023-08-30T08:28:34;8.00;6.25;5.00
35654;PMS1003;21773;50.010;19.972;2023-08-30T08:31:38;8.00;6.60;5.00
35654;PMS1003;21773;50.010;19.972;2023-08-30T08:34:41;7.00;7.00;5.00
35654;PMS1003;21773;50.010;19.972;2023-08-30T08:37:45;8.00;7.00;5.00
35654;PMS1003;21773;50.010;19.972;2023-08-30T08:40:50;10.00;8.80;6.80
35654;PMS1003;21773;50.010;19.972;2023-08-30T08:43:56;9.00;8.00;7.00
35654;PMS1003;21773;50.010;19.972;2023-08-30T08:47:00;9.50;7.00;6.00
35654;PMS1003;21773;50.010;19.972;2023-08-30T08:50:05;9.00;8.00;6.00
35654;PMS1003;21773;50.010;19.972;2023-08-30T08:53:09;6.00;5.00;5.00
35654;PMS1003;21773;50.010;19.972;2023-08-30T08:56:14;7.60;7.60;6.00
35654;PMS1003;21773;50.010;19.972;2023-08-30T08:59:19;8.00;7.00;6.00
35654;PMS1003;21773;50.010;19.972;2023-08-30T09:02:24;8.00;7.00;6.00
35654;PMS1003;21773;50.010;19.972;2023-08-30T09:05:28;7.20;7.00;6.00
35654;PMS1003;21773;50.010;19.972;2023-08-30T09:08:33;6.00;6.00;4.75
35654;PMS1003;21773;50.010;19.972;2023-08-30T09:11:38;8.00;7.20;5.20
35654;PMS1003;21773;50.010;19.972;2023-08-30T09:14:52;6.00;5.00;5.00
35654;PMS1003;21773;50.010;19.972;2023-08-30T09:17:56;5.00;5.00;4.00
35654;PMS1003;21773;50.010;19.972;2023-08-30T09:21:04;7.25;6.00;4.25
35654;PMS1003;21773;50.010;19.972;2023-08-30T09:24:08;6.00;6.00;5.00
35654;PMS1003;21773;50.010;19.972;2023-08-30T09:27:13;8.00;7.00;6.00
35654;PMS1003;21773;50.010;19.972;2023-08-30T09:30:20;8.60;7.00;6.00
35654;PMS1003;21773;50.010;19.972;2023-08-30T09:33:29;9.60;8.00;7.00
35654;PMS1003;21773;50.010;19.972;2023-08-30T09:36:34;8.40;7.00;5.00
35654;PMS1003;21773;50.010;19.972;2023-08-30T09:39:38;7.00;6.40;5.40
35654;PMS1003;21773;50.010;19.972;2023-08-30T09:42:52;10.20;8.60;7.00
35654;PMS1003;21773;50.010;19.972;2023-08-30T09:46:14;9.00;9.00;7.00
35654;PMS1003;21773;50.010;19.972;2023-08-30T09:49:18;10.00;8.80;7.20
35654;PMS1003;21773;50.010;19.972;2023-08-30T09:52:23;12.00;10.00;9.00
35654;PMS1003;21773;50.010;19.972;2023-08-30T09:55:27;11.80;10.20;8.00
35654;PMS1003;21773;50.010;19.972;2023-08-30T09:58:32;12.40;12.40;10.00
35654;PMS1003;21773;50.010;19.972;2023-08-30T10:01:36;9.40;9.40;8.00
35654;PMS1003;21773;50.010;19.972;2023-08-30T10:04:40;12.00;11.00;9.40
35654;PMS1003;21773;50.010;19.972;2023-08-30T10:07:44;11.80;10.20;8.80
35654;PMS1003;21773;50.010;19.972;2023-08-30T10:10:48;11.00;10.00;9.00
35654;PMS1003;21773;50.010;19.972;2023-08-30T10:13:54;11.00;9.00;7.00
35654;PMS1003;21773;50.010;19.972;2023-08-30T10:17:17;11.00;10.00;8.60
35654;PMS1003;21773;50.010;19.972;2023-08-30T10:20:23;9.00;8.00;7.00
35654;PMS1003;21773;50.010;19.972;2023-08-30T10:23:27;13.00;11.00;9.00
35654;PMS1003;21773;50.010;19.972;2023-08-30T10:26:32;10.00;9.80;8.00
35654;PMS1003;21773;50.010;19.972;2023-08-30T10:29:41;11.00;10.00;8.40
35654;PMS1003;21773;50.010;19.972;2023-08-30T10:32:46;9.60;9.00;8.20
35654;PMS1003;21773;50.010;19.972;2023-08-30T10:35:49;12.75;10.75;8.50
35654;PMS1003;21773;50.010;19.972;2023-08-30T10:38:53;10.60;10.00;8.00
35654;PMS1003;21773;50.010;19.972;2023-08-30T10:41:57;10.40;9.40;8.00
35654;PMS1003;21773;50.010;19.972;2023-08-30T10:45:04;9.00;8.40;7.40
35654;PMS1003;21773;50.010;19.972;2023-08-30T10:48:14;10.00;8.40;7.00
35654;PMS1003;21773;50.010;19.972;2023-08-30T10:51:20;8.50;8.00;7.00
35654;PMS1003;21773;50.010;19.972;2023-08-30T10:54:24;10.00;9.50;8.00
35654;PMS1003;21773;50.010;19.972;2023-08-30T10:57:27;9.00;7.40;6.00
35654;PMS1003;21773;50.010;19.972;2023-08-30T11:00:32;8.20;8.20;7.00
35654;PMS1003;21773;50.010;19.972;2023-08-30T11:03:37;11.00;9.00;8.00
35654;PMS1003;21773;50.010;19.972;2023-08-30T11:06:42;11.20;9.20;7.20
35654;PMS1003;21773;50.010;19.972;2023-08-30T11:09:47;9.20;9.00;7.80
35654;PMS1003;21773;50.010;19.972;2023-08-30T11:12:51;13.00;10.00;9.50
35654;PMS1003;21773;50.010;19.972;2023-08-30T11:16:00;11.80;10.80;8.80
35654;PMS1003;21773;50.010;19.972;2023-08-30T11:19:06;13.00;11.20;10.00
35654;PMS1003;21773;50.010;19.972;2023-08-30T11:22:12;10.00;8.00;7.00
35654;PMS1003;21773;50.010;19.972;2023-08-30T11:25:15;12.00;11.00;9.00
35654;PMS1003;21773;50.010;19.972;2023-08-30T11:28:22;12.00;11.00;9.00
35654;PMS1003;21773;50.010;19.972;2023-08-30T11:31:27;12.60;11.40;10.00
35654;PMS1003;21773;50.010;19.972;2023-08-30T11:34:31;9.00;8.40;7.00
35654;PMS1003;21773;50.010;19.972;2023-08-30T11:37:34;11.40;8.40;6.40
35654;PMS1003;21773;50.010;19.972;2023-08-30T11:40:37;11.25;11.25;10.00
35654;PMS1003;21773;50.010;19.972;2023-08-30T11:43:40;11.00;9.00;8.20
35654;PMS1003;21773;50.010;19.972;2023-08-30T11:46:45;12.60;11.00;9.00
35654;PMS1003;21773;50.010;19.972;2023-08-30T11:49:49;10.20;9.20;7.00
35654;PMS1003;21773;50.010;19.972;2023-08-30T11:52:53;11.40;10.40;8.40
35654;PMS1003;21773;50.010;19.972;2023-08-30T11:55:56;11.00;10.00;9.00
35654;PMS1003;21773;50.010;19.972;2023-08-30T11:58:59;13.00;11.80;9.40
35654;PMS1003;21773;50.010;19.972;2023-08-30T12:02:11;12.00;11.40;10.00
35654;PMS1003;21773;50.010;19.972;2023-08-30T12:05:15;9.80;9.00;7.00
35654;PMS1003;21773;50.010;19.972;2023-08-30T12:08:18;13.00;11.75;9.75
35654;PMS1003;21773;50.010;19.972;2023-08-30T12:11:22;12.00;10.40;8.00
35654;PMS1003;21773;50.010;19.972;2023-08-30T12:14:32;13.00;12.25;10.50
35654;PMS1003;21773;50.010;19.972;2023-08-30T12:17:37;11.40;11.00;9.40
35654;PMS1003;21773;50.010;19.972;2023-08-30T12:20:50;15.60;13.60;10.60
35654;PMS1003;21773;50.010;19.972;2023-08-30T12:23:59;13.00;12.20;10.00
35654;PMS1003;21773;50.010;19.972;2023-08-30T12:27:05;15.75;14.00;11.25
35654;PMS1003;21773;50.010;19.972;2023-08-30T12:30:09;14.00;13.67;12.00
35654;PMS1003;21773;50.010;19.972;2023-08-30T12:33:17;14.80;13.00;11.00
35654;PMS1003;21773;50.010;19.972;2023-08-30T12:36:20;13.20;13.20;10.80
35654;PMS1003;21773;50.010;19.972;2023-08-30T12:39:24;16.60;15.00;12.00
35654;PMS1003;21773;50.010;19.972;2023-08-30T12:42:27;18.60;17.60;13.60
35654;PMS1003;21773;50.010;19.972;2023-08-30T12:45:30;15.00;14.00;11.60
35654;PMS1003;21773;50.010;19.972;2023-08-30T12:48:35;17.00;15.00;12.40
35654;PMS1003;21773;50.010;19.972;2023-08-30T12:51:38;16.60;15.00;12.60
35654;PMS1003;21773;50.010;19.972;2023-08-30T12:54:41;20.80;18.40;14.80
35654;PMS1003;21773;50.010;19.972;2023-08-30T12:57:44;16.60;15.40;13.00
35654;PMS1003;21773;50.010;19.972;2023-08-30T13:00:48;18.40;16.40;14.60
35654;PMS1003;21773;50.010;19.972;2023-08-30T13:03:53;17.60;16.60;13.40
35654;PMS1003;21773;50.010;19.972;2023-08-30T13:06:56;15.80;12.20;10.00
35654;PMS1003;21773;50.010;19.972;2023-08-30T13:09:59;18.50;15.75;13.00
35654;PMS1003;21773;50.010;19.972;2023-08-30T13:13:02;15.60;14.00;11.00
35654;PMS1003;21773;50.010;19.972;2023-08-30T13:16:06;19.00;15.00;11.00
35654;PMS1003;21773;50.010;19.972;2023-08-30T13:19:11;15.20;15.00;11.80
35654;PMS1003;21773;50.010;19.972;2023-08-30T13:22:14;16.00;14.00;12.00
35654;PMS1003;21773;50.010;19.972;2023-08-30T13:25:18;14.00;13.20;10.80
35654;PMS1003;21773;50.010;19.972;2023-08-30T13:28:21;18.75;14.00;11.00
35654;PMS1003;21773;50.010;19.972;2023-08-30T13:31:24;15.40;14.00;11.00
35654;PMS1003;21773;50.010;19.972;2023-08-30T13:34:29;18.00;15.60;13.00
35654;PMS1003;21773;50.010;19.972;2023-08-30T13:37:32;17.00;17.00;14.00
35654;PMS1003;21773;50.010;19.972;2023-08-30T13:40:35;16.50;13.50;11.50
35654;PMS1003;21773;50.010;19.972;2023-08-30T13:43:39;16.00;14.00;11.00
35654;PMS1003;21773;50.010;19.972;2023-08-30T13:46:43;16.50;15.00;13.00
35654;PMS1003;21773;50.010;19.972;2023-08-30T13:49:53;15.40;12.00;10.80
35654;PMS1003;21773;50.010;19.972;2023-08-30T13:52:59;15.50;13.50;11.50
35654;PMS1003;21773;50.010;19.972;2023-08-30T13:56:02;17.00;16.00;12.00
35654;PMS1003;21773;50.010;19.972;2023-08-30T13:59:06;14.60;13.80;10.60
35654;PMS1003;21773;50.010;19.972;2023-08-30T14:02:09;14.00;13.00;12.00
35654;PMS1003;21773;50.010;19.972;2023-08-30T14:05:13;14.00;13.00;11.75
35654;PMS1003;21773;50.010;19.972;2023-08-30T14:08:17;17.00;15.00;13.00
35654;PMS1003;21773;50.010;19.972;2023-08-30T14:11:20;11.00;11.00;10.00
35654;PMS1003;21773;50.010;19.972;2023-08-30T14:14:23;13.00;12.60;11.00
35654;PMS1003;21773;50.010;19.972;2023-08-30T14:17:26;14.60;13.20;10.40
35654;PMS1003;21773;50.010;19.972;2023-08-30T14:20:31;12.80;12.80;11.00
35654;PMS1003;21773;50.010;19.972;2023-08-30T14:23:34;12.40;11.00;9.40
35654;PMS1003;21773;50.010;19.972;2023-08-30T14:26:38;15.00;13.00;11.00
35654;PMS1003;21773;50.010;19.972;2023-08-30T14:29:41;14.00;13.40;11.40
35654;PMS1003;21773;50.010;19.972;2023-08-30T14:32:45;12.00;11.60;10.00
35654;PMS1003;21773;50.010;19.972;2023-08-30T14:35:49;16.20;13.60;12.00
35654;PMS1003;21773;50.010;19.972;2023-08-30T14:38:53;13.00;11.40;10.40
35654;PMS1003;21773;50.010;19.972;2023-08-30T14:41:56;15.40;13.80;11.20
35654;PMS1003;21773;50.010;19.972;2023-08-30T14:45:00;13.00;11.50;10.00
35654;PMS1003;21773;50.010;19.972;2023-08-30T14:48:04;11.00;11.00;9.00
35654;PMS1003;21773;50.010;19.972;2023-08-30T14:51:13;11.00;10.40;9.40
35654;PMS1003;21773;50.010;19.972;2023-08-30T14:54:21;13.00;12.00;10.00
35654;PMS1003;21773;50.010;19.972;2023-08-30T14:57:24;12.40;11.40;9.40
35654;PMS1003;21773;50.010;19.972;2023-08-30T15:00:28;14.00;12.00;10.20
35654;PMS1003;21773;50.010;19.972;2023-08-30T15:03:31;14.40;12.00;10.00
35654;PMS1003;21773;50.010;19.972;2023-08-30T15:06:45;11.20;11.00;9.20
35654;PMS1003;21773;50.010;19.972;2023-08-30T15:09:48;14.00;14.00;13.00
35654;PMS1003;21773;50.010;19.972;2023-08-30T15:12:51;13.00;11.00;10.00
35654;PMS1003;21773;50.010;19.972;2023-08-30T15:15:54;9.20;8.80;7.20
35654;PMS1003;21773;50.010;19.972;2023-08-30T15:18:57;12.00;11.00;9.00
35654;PMS1003;21773;50.010;19.972;2023-08-30T15:22:02;12.40;12.00;10.00
35654;PMS1003;21773;50.010;19.972;2023-08-30T15:25:07;10.00;9.00;8.00
35654;PMS1003;21773;50.010;19.972;2023-08-30T15:28:10;13.00;11.00;9.25
35654;PMS1003;21773;50.010;19.972;2023-08-30T15:31:14;10.00;9.00;8.00
35654;PMS1003;21773;50.010;19.972;2023-08-30T15:34:21;9.20;8.80;7.80
35654;PMS1003;21773;50.010;19.972;2023-08-30T15:37:25;8.60;8.00;7.60
35654;PMS1003;21773;50.010;19.972;2023-08-30T15:40:28;12.00;10.20;8.80
35654;PMS1003;21773;50.010;19.972;2023-08-30T15:43:33;10.40;8.40;8.00
35654;PMS1003;21773;50.010;19.972;2023-08-30T15:46:40;10.00;10.00;8.40
35654;PMS1003;21773;50.010;19.972;2023-08-30T15:49:44;10.60;10.20;9.20
35654;PMS1003;21773;50.010;19.972;2023-08-30T15:52:48;11.00;11.00;8.00
35654;PMS1003;21773;50.010;19.972;2023-08-30T15:55:51;12.00;11.50;9.50
35654;PMS1003;21773;50.010;19.972;2023-08-30T15:58:55;10.80;9.80;8.80
35654;PMS1003;21773;50.010;19.972;2023-08-30T16:01:58;12.00;11.00;10.00
35654;PMS1003;21773;50.010;19.972;2023-08-30T16:05:01;12.00;11.00;8.00
35654;PMS1003;21773;50.010;19.972;2023-08-30T16:08:06;11.40;10.60;9.00
35654;PMS1003;21773;50.010;19.972;2023-08-30T16:11:10;12.60;11.00;10.00
35654;PMS1003;21773;50.010;19.972;2023-08-30T16:14:13;11.00;10.00;9.00
35654;PMS1003;21773;50.010;19.972;2023-08-30T16:17:16;11.00;10.00;9.00
35654;PMS1003;21773;50.010;19.972;2023-08-30T16:20:19;12.00;11.60;10.00
35654;PMS1003;21773;50.010;19.972;2023-08-30T16:23:24;14.00;12.60;12.00
35654;PMS1003;21773;50.010;19.972;2023-08-30T16:26:27;13.00;13.00;11.00
35654;PMS1003;21773;50.010;19.972;2023-08-30T16:29:30;11.60;11.00;9.00
35654;PMS1003;21773;50.010;19.972;2023-08-30T16:32:34;11.00;10.00;9.00
35654;PMS1003;21773;50.010;19.972;2023-08-30T16:35:37;11.00;10.75;9.00
35654;PMS1003;21773;50.010;19.972;2023-08-30T16:38:41;13.80;12.80;11.80
35654;PMS1003;21773;50.010;19.972;2023-08-30T16:41:44;13.00;13.00;11.00
35654;PMS1003;21773;50.010;19.972;2023-08-30T16:44:49;10.75;10.00;9.00
35654;PMS1003;21773;50.010;19.972;2023-08-30T16:47:53;13.00;11.00;9.00
35654;PMS1003;21773;50.010;19.972;2023-08-30T16:51:04;13.60;11.40;9.60
35654;PMS1003;21773;50.010;19.972;2023-08-30T16:54:12;10.00;10.00;8.60
35654;PMS1003;21773;50.010;19.972;2023-08-30T16:57:15;10.50;9.50;9.00
35654;PMS1003;21773;50.010;19.972;2023-08-30T17:00:18;13.00;11.40;9.00
35654;PMS1003;21773;50.010;19.972;2023-08-30T17:03:22;14.00;13.40;10.60
35654;PMS1003;21773;50.010;19.972;2023-08-30T17:06:29;9.75;9.00;8.00
35654;PMS1003;21773;50.010;19.972;2023-08-30T17:09:34;11.00;11.00;9.40
35654;PMS1003;21773;50.010;19.972;2023-08-30T17:12:40;12.00;10.40;9.00
35654;PMS1003;21773;50.010;19.972;2023-08-30T17:15:44;13.00;12.00;10.00
35654;PMS1003;21773;50.010;19.972;2023-08-30T17:18:48;10.00;9.60;8.00
35654;PMS1003;21773;50.010;19.972;2023-08-30T17:21:51;11.00;9.00;8.00